sensor_id;sensor_type;location;lat;lon;timestamp;temperature;humidity
16863;DHT22;52193;48.216;-1.698;2023-02-27T00:01:11;8.50;66.40
16863;DHT22;52193;48.216;-1.698;2023-02-27T00:03:38;8.40;66.40
16863;DHT22;52193;48.216;-1.698;2023-02-27T00:06:05;8.40;66.60
16863;DHT22;52193;48.216;-1.698;2023-02-27T00:08:32;8.50;66.70
16863;DHT22;52193;48.216;-1.698;2023-02-27T00:10:59;8.50;66.80
16863;DHT22;52193;48.216;-1.698;2023-02-27T00:13:26;8.40;67.50
16863;DHT22;52193;48.216;-1.698;2023-02-27T00:15:53;8.50;67.10
16863;DHT22;52193;48.216;-1.698;2023-02-27T00:18:22;8.40;67.00
16863;DHT22;52193;48.216;-1.698;2023-02-27T00:20:49;8.50;67.20
16863;DHT22;52193;48.216;-1.698;2023-02-27T00:23:16;8.50;67.30
16863;DHT22;52193;48.216;-1.698;2023-02-27T00:25:43;8.40;67.20
16863;DHT22;52193;48.216;-1.698;2023-02-27T00:28:10;8.40;67.50
16863;DHT22;52193;48.216;-1.698;2023-02-27T00:30:37;8.30;67.70
16863;DHT22;52193;48.216;-1.698;2023-02-27T00:33:04;8.30;67.90
16863;DHT22;52193;48.216;-1.698;2023-02-27T00:35:32;8.30;68.00
16863;DHT22;52193;48.216;-1.698;2023-02-27T00:37:59;8.40;68.10
16863;DHT22;52193;48.216;-1.698;2023-02-27T00:40:26;8.30;68.00
16863;DHT22;52193;48.216;-1.698;2023-02-27T00:42:53;8.30;68.20
16863;DHT22;52193;48.216;-1.698;2023-02-27T00:45:20;8.30;68.20
16863;DHT22;52193;48.216;-1.698;2023-02-27T00:47:47;8.30;68.20
16863;DHT22;52193;48.216;-1.698;2023-02-27T00:50:14;8.30;68.40
16863;DHT22;52193;48.216;-1.698;2023-02-27T00:52:43;8.30;68.30
16863;DHT22;52193;48.216;-1.698;2023-02-27T00:55:10;8.20;68.50
16863;DHT22;52193;48.216;-1.698;2023-02-27T00:57:37;8.30;68.60
16863;DHT22;52193;48.216;-1.698;2023-02-27T01:00:06;8.30;68.60
16863;DHT22;52193;48.216;-1.698;2023-02-27T01:02:33;8.30;68.60
16863;DHT22;52193;48.216;-1.698;2023-02-27T01:05:01;8.30;68.70
16863;DHT22;52193;48.216;-1.698;2023-02-27T01:07:28;8.20;68.70
16863;DHT22;52193;48.216;-1.698;2023-02-27T01:09:56;8.20;68.70
16863;DHT22;52193;48.216;-1.698;2023-02-27T01:12:23;8.30;68.90
16863;DHT22;52193;48.216;-1.698;2023-02-27T01:14:50;8.30;68.80
16863;DHT22;52193;48.216;-1.698;2023-02-27T01:17:17;8.20;68.90
16863;DHT22;52193;48.216;-1.698;2023-02-27T01:19:44;8.20;68.90
16863;DHT22;52193;48.216;-1.698;2023-02-27T01:22:11;8.20;69.00
16863;DHT22;52193;48.216;-1.698;2023-02-27T01:24:38;8.20;69.20
16863;DHT22;52193;48.216;-1.698;2023-02-27T01:27:06;8.20;69.30
16863;DHT22;52193;48.216;-1.698;2023-02-27T01:29:33;8.10;69.30
16863;DHT22;52193;48.216;-1.698;2023-02-27T01:32:00;8.10;69.50
16863;DHT22;52193;48.216;-1.698;2023-02-27T01:34:27;8.20;69.60
16863;DHT22;52193;48.216;-1.698;2023-02-27T01:36:54;8.10;69.60
16863;DHT22;52193;48.216;-1.698;2023-02-27T01:39:21;8.20;69.60
16863;DHT22;52193;48.216;-1.698;2023-02-27T01:41:48;8.10;69.70
16863;DHT22;52193;48.216;-1.698;2023-02-27T01:44:17;8.10;69.80
16863;DHT22;52193;48.216;-1.698;2023-02-27T01:46:44;8.10;69.80
16863;DHT22;52193;48.216;-1.698;2023-02-27T01:49:14;8.10;70.00
16863;DHT22;52193;48.216;-1.698;2023-02-27T01:51:45;8.10;70.10
16863;DHT22;52193;48.216;-1.698;2023-02-27T01:54:16;8.00;70.30
16863;DHT22;52193;48.216;-1.698;2023-02-27T01:56:44;8.00;70.30
16863;DHT22;52193;48.216;-1.698;2023-02-27T01:59:11;8.10;70.40
16863;DHT22;52193;48.216;-1.698;2023-02-27T02:01:40;8.10;70.40
16863;DHT22;52193;48.216;-1.698;2023-02-27T02:04:11;8.10;70.50
16863;DHT22;52193;48.216;-1.698;2023-02-27T02:06:44;8.00;70.40
16863;DHT22;52193;48.216;-1.698;2023-02-27T02:09:13;8.00;70.60
16863;DHT22;52193;48.216;-1.698;2023-02-27T02:11:43;8.00;70.70
16863;DHT22;52193;48.216;-1.698;2023-02-27T02:14:10;8.00;70.70
16863;DHT22;52193;48.216;-1.698;2023-02-27T02:16:59;8.00;71.00
16863;DHT22;52193;48.216;-1.698;2023-02-27T02:19:59;8.00;71.10
16863;DHT22;52193;48.216;-1.698;2023-02-27T02:29:16;8.00;71.10
16863;DHT22;52193;48.216;-1.698;2023-02-27T02:38:26;7.80;71.50
16863;DHT22;52193;48.216;-1.698;2023-02-27T02:41:04;7.80;71.70
16863;DHT22;52193;48.216;-1.698;2023-02-27T02:43:43;7.80;71.70
16863;DHT22;52193;48.216;-1.698;2023-02-27T02:46:18;7.80;71.80
16863;DHT22;52193;48.216;-1.698;2023-02-27T02:48:51;7.80;71.80
16863;DHT22;52193;48.216;-1.698;2023-02-27T02:51:28;7.80;71.80
16863;DHT22;52193;48.216;-1.698;2023-02-27T02:54:01;7.70;72.00
16863;DHT22;52193;48.216;-1.698;2023-02-27T02:56:34;7.70;72.20
16863;DHT22;52193;48.216;-1.698;2023-02-27T02:59:08;7.70;72.20
16863;DHT22;52193;48.216;-1.698;2023-02-27T03:01:39;7.70;72.20
16863;DHT22;52193;48.216;-1.698;2023-02-27T03:04:11;7.70;72.20
16863;DHT22;52193;48.216;-1.698;2023-02-27T03:06:42;7.80;72.20
16863;DHT22;52193;48.216;-1.698;2023-02-27T03:09:17;7.70;72.20
16863;DHT22;52193;48.216;-1.698;2023-02-27T03:11:47;7.70;72.30
16863;DHT22;52193;48.216;-1.698;2023-02-27T03:14:22;7.70;72.40
16863;DHT22;52193;48.216;-1.698;2023-02-27T03:16:54;7.60;72.40
16863;DHT22;52193;48.216;-1.698;2023-02-27T03:19:28;7.70;72.50
16863;DHT22;52193;48.216;-1.698;2023-02-27T03:21:59;7.70;72.50
16863;DHT22;52193;48.216;-1.698;2023-02-27T03:24:34;7.60;72.50
16863;DHT22;52193;48.216;-1.698;2023-02-27T03:27:06;7.70;73.20
16863;DHT22;52193;48.216;-1.698;2023-02-27T03:29:38;7.70;72.50
16863;DHT22;52193;48.216;-1.698;2023-02-27T03:32:10;7.70;72.40
16863;DHT22;52193;48.216;-1.698;2023-02-27T03:34:39;7.70;72.20
16863;DHT22;52193;48.216;-1.698;2023-02-27T03:37:19;7.70;72.20
16863;DHT22;52193;48.216;-1.698;2023-02-27T03:39:50;7.80;72.40
16863;DHT22;52193;48.216;-1.698;2023-02-27T03:42:25;7.70;72.20
16863;DHT22;52193;48.216;-1.698;2023-02-27T03:44:59;7.70;72.20
16863;DHT22;52193;48.216;-1.698;2023-02-27T03:47:28;7.60;72.20
16863;DHT22;52193;48.216;-1.698;2023-02-27T03:49:56;7.60;72.20
16863;DHT22;52193;48.216;-1.698;2023-02-27T03:52:25;7.60;72.20
16863;DHT22;52193;48.216;-1.698;2023-02-27T03:54:58;7.60;72.40
16863;DHT22;52193;48.216;-1.698;2023-02-27T03:57:27;7.50;72.30
16863;DHT22;52193;48.216;-1.698;2023-02-27T03:59:54;7.50;72.20
16863;DHT22;52193;48.216;-1.698;2023-02-27T04:02:22;7.50;72.30
16863;DHT22;52193;48.216;-1.698;2023-02-27T04:04:49;7.50;72.30
16863;DHT22;52193;48.216;-1.698;2023-02-27T04:07:23;7.50;72.30
16863;DHT22;52193;48.216;-1.698;2023-02-27T04:10:16;7.50;72.30
16863;DHT22;52193;48.216;-1.698;2023-02-27T04:13:07;7.50;72.30
16863;DHT22;52193;48.216;-1.698;2023-02-27T04:15:46;7.50;72.40
16863;DHT22;52193;48.216;-1.698;2023-02-27T04:18:27;7.50;72.40
16863;DHT22;52193;48.216;-1.698;2023-02-27T04:21:02;7.50;72.40
16863;DHT22;52193;48.216;-1.698;2023-02-27T04:23:36;7.40;72.50
16863;DHT22;52193;48.216;-1.698;2023-02-27T04:26:15;7.40;72.60
16863;DHT22;52193;48.216;-1.698;2023-02-27T04:28:50;7.40;72.70
16863;DHT22;52193;48.216;-1.698;2023-02-27T04:31:23;7.40;72.70
16863;DHT22;52193;48.216;-1.698;2023-02-27T04:33:58;7.30;72.70
16863;DHT22;52193;48.216;-1.698;2023-02-27T04:36:31;7.30;72.80
16863;DHT22;52193;48.216;-1.698;2023-02-27T04:39:03;7.30;72.90
16863;DHT22;52193;48.216;-1.698;2023-02-27T04:41:37;7.30;72.90
16863;DHT22;52193;48.216;-1.698;2023-02-27T04:44:07;7.20;72.70
16863;DHT22;52193;48.216;-1.698;2023-02-27T04:46:38;7.30;72.80
16863;DHT22;52193;48.216;-1.698;2023-02-27T04:49:12;7.30;72.70
16863;DHT22;52193;48.216;-1.698;2023-02-27T04:51:45;7.20;72.80
16863;DHT22;52193;48.216;-1.698;2023-02-27T04:54:20;7.20;72.90
16863;DHT22;52193;48.216;-1.698;2023-02-27T04:56:51;7.20;73.70
16863;DHT22;52193;48.216;-1.698;2023-02-27T04:59:23;7.20;73.90
16863;DHT22;52193;48.216;-1.698;2023-02-27T05:01:55;7.10;73.80
16863;DHT22;52193;48.216;-1.698;2023-02-27T05:04:24;7.10;73.90
16863;DHT22;52193;48.216;-1.698;2023-02-27T05:06:53;7.20;73.90
16863;DHT22;52193;48.216;-1.698;2023-02-27T05:09:27;7.20;73.80
16863;DHT22;52193;48.216;-1.698;2023-02-27T05:12:01;7.20;73.90
16863;DHT22;52193;48.216;-1.698;2023-02-27T05:14:32;7.20;73.90
16863;DHT22;52193;48.216;-1.698;2023-02-27T05:17:04;7.30;73.80
16863;DHT22;52193;48.216;-1.698;2023-02-27T05:19:36;7.30;73.70
16863;DHT22;52193;48.216;-1.698;2023-02-27T05:22:13;7.30;73.60
16863;DHT22;52193;48.216;-1.698;2023-02-27T05:24:48;7.20;73.40
16863;DHT22;52193;48.216;-1.698;2023-02-27T05:27:23;7.30;73.30
16863;DHT22;52193;48.216;-1.698;2023-02-27T05:29:57;7.40;73.50
16863;DHT22;52193;48.216;-1.698;2023-02-27T05:32:34;7.30;73.40
16863;DHT22;52193;48.216;-1.698;2023-02-27T05:35:10;7.30;73.70
16863;DHT22;52193;48.216;-1.698;2023-02-27T05:37:43;7.40;73.70
16863;DHT22;52193;48.216;-1.698;2023-02-27T05:40:15;7.40;73.60
16863;DHT22;52193;48.216;-1.698;2023-02-27T05:42:48;7.40;73.50
16863;DHT22;52193;48.216;-1.698;2023-02-27T05:45:19;7.40;73.60
16863;DHT22;52193;48.216;-1.698;2023-02-27T05:47:52;7.40;73.50
16863;DHT22;52193;48.216;-1.698;2023-02-27T05:50:25;7.50;73.20
16863;DHT22;52193;48.216;-1.698;2023-02-27T05:52:53;7.50;73.00
16863;DHT22;52193;48.216;-1.698;2023-02-27T05:55:25;7.50;72.80
16863;DHT22;52193;48.216;-1.698;2023-02-27T05:57:56;7.50;72.70
16863;DHT22;52193;48.216;-1.698;2023-02-27T06:00:29;7.40;72.50
16863;DHT22;52193;48.216;-1.698;2023-02-27T06:02:59;7.40;72.50
16863;DHT22;52193;48.216;-1.698;2023-02-27T06:05:26;7.40;72.70
16863;DHT22;52193;48.216;-1.698;2023-02-27T06:07:53;7.40;72.70
16863;DHT22;52193;48.216;-1.698;2023-02-27T06:10:21;7.50;72.70
16863;DHT22;52193;48.216;-1.698;2023-02-27T06:12:47;7.40;72.60
16863;DHT22;52193;48.216;-1.698;2023-02-27T06:15:16;7.40;72.70
16863;DHT22;52193;48.216;-1.698;2023-02-27T06:17:44;7.40;72.70
16863;DHT22;52193;48.216;-1.698;2023-02-27T06:20:11;7.30;72.70
16863;DHT22;52193;48.216;-1.698;2023-02-27T06:22:38;7.30;72.90
16863;DHT22;52193;48.216;-1.698;2023-02-27T06:25:06;7.30;72.90
16863;DHT22;52193;48.216;-1.698;2023-02-27T06:27:33;7.30;72.80
16863;DHT22;52193;48.216;-1.698;2023-02-27T06:30:00;7.30;72.90
16863;DHT22;52193;48.216;-1.698;2023-02-27T06:32:28;7.20;72.80
16863;DHT22;52193;48.216;-1.698;2023-02-27T06:34:55;7.10;73.00
16863;DHT22;52193;48.216;-1.698;2023-02-27T06:37:22;7.20;73.30
16863;DHT22;52193;48.216;-1.698;2023-02-27T06:39:49;7.20;73.20
16863;DHT22;52193;48.216;-1.698;2023-02-27T06:42:16;7.10;73.10
16863;DHT22;52193;48.216;-1.698;2023-02-27T06:44:43;7.10;73.20
16863;DHT22;52193;48.216;-1.698;2023-02-27T06:47:10;7.10;73.40
16863;DHT22;52193;48.216;-1.698;2023-02-27T06:49:39;7.10;73.40
16863;DHT22;52193;48.216;-1.698;2023-02-27T06:52:06;7.00;73.50
16863;DHT22;52193;48.216;-1.698;2023-02-27T06:54:33;7.00;74.30
16863;DHT22;52193;48.216;-1.698;2023-02-27T06:57:00;7.00;74.10
16863;DHT22;52193;48.216;-1.698;2023-02-27T06:59:27;7.00;74.10
16863;DHT22;52193;48.216;-1.698;2023-02-27T07:01:54;7.00;74.10
16863;DHT22;52193;48.216;-1.698;2023-02-27T07:04:21;7.00;73.90
16863;DHT22;52193;48.216;-1.698;2023-02-27T07:06:49;7.00;74.10
16863;DHT22;52193;48.216;-1.698;2023-02-27T07:09:17;7.00;74.10
16863;DHT22;52193;48.216;-1.698;2023-02-27T07:11:44;7.00;74.10
16863;DHT22;52193;48.216;-1.698;2023-02-27T07:14:11;7.00;74.10
16863;DHT22;52193;48.216;-1.698;2023-02-27T07:16:41;7.10;74.10
16863;DHT22;52193;48.216;-1.698;2023-02-27T07:19:08;7.10;74.00
16863;DHT22;52193;48.216;-1.698;2023-02-27T07:21:35;7.10;74.90
16863;DHT22;52193;48.216;-1.698;2023-02-27T07:24:04;7.00;75.20
16863;DHT22;52193;48.216;-1.698;2023-02-27T07:26:31;7.00;75.60
16863;DHT22;52193;48.216;-1.698;2023-02-27T07:28:58;7.00;75.70
16863;DHT22;52193;48.216;-1.698;2023-02-27T07:31:25;7.10;75.80
16863;DHT22;52193;48.216;-1.698;2023-02-27T07:33:52;7.10;75.70
16863;DHT22;52193;48.216;-1.698;2023-02-27T07:36:20;7.10;75.70
16863;DHT22;52193;48.216;-1.698;2023-02-27T07:38:46;7.10;75.70
16863;DHT22;52193;48.216;-1.698;2023-02-27T07:41:15;7.10;75.80
16863;DHT22;52193;48.216;-1.698;2023-02-27T07:43:42;7.10;75.60
16863;DHT22;52193;48.216;-1.698;2023-02-27T07:46:09;7.30;75.60
16863;DHT22;52193;48.216;-1.698;2023-02-27T07:48:37;7.30;75.40
16863;DHT22;52193;48.216;-1.698;2023-02-27T07:51:05;7.30;75.30
16863;DHT22;52193;48.216;-1.698;2023-02-27T07:53:32;7.30;75.90
16863;DHT22;52193;48.216;-1.698;2023-02-27T07:55:59;7.30;75.20
16863;DHT22;52193;48.216;-1.698;2023-02-27T07:58:27;7.40;75.30
16863;DHT22;52193;48.216;-1.698;2023-02-27T08:00:54;7.40;75.00
16863;DHT22;52193;48.216;-1.698;2023-02-27T08:03:21;7.40;74.90
16863;DHT22;52193;48.216;-1.698;2023-02-27T08:05:48;7.40;74.90
16863;DHT22;52193;48.216;-1.698;2023-02-27T08:08:15;7.50;74.80
16863;DHT22;52193;48.216;-1.698;2023-02-27T08:10:42;7.50;74.60
16863;DHT22;52193;48.216;-1.698;2023-02-27T08:13:09;7.50;74.60
16863;DHT22;52193;48.216;-1.698;2023-02-27T08:15:38;7.50;74.40
16863;DHT22;52193;48.216;-1.698;2023-02-27T08:18:05;7.60;74.10
16863;DHT22;52193;48.216;-1.698;2023-02-27T08:20:32;7.60;73.90
16863;DHT22;52193;48.216;-1.698;2023-02-27T08:22:59;7.80;73.70
16863;DHT22;52193;48.216;-1.698;2023-02-27T08:25:26;7.80;73.60
16863;DHT22;52193;48.216;-1.698;2023-02-27T08:27:53;7.90;73.50
16863;DHT22;52193;48.216;-1.698;2023-02-27T08:30:20;7.90;73.10
16863;DHT22;52193;48.216;-1.698;2023-02-27T08:32:48;7.90;73.00
16863;DHT22;52193;48.216;-1.698;2023-02-27T08:35:15;8.00;72.70
16863;DHT22;52193;48.216;-1.698;2023-02-27T08:37:42;8.00;72.40
16863;DHT22;52193;48.216;-1.698;2023-02-27T08:40:10;8.00;72.30
16863;DHT22;52193;48.216;-1.698;2023-02-27T08:42:37;8.10;72.40
16863;DHT22;52193;48.216;-1.698;2023-02-27T08:45:05;8.10;71.60
16863;DHT22;52193;48.216;-1.698;2023-02-27T08:47:32;8.20;70.90
16863;DHT22;52193;48.216;-1.698;2023-02-27T08:50:01;8.20;70.50
16863;DHT22;52193;48.216;-1.698;2023-02-27T08:52:28;8.20;70.60
16863;DHT22;52193;48.216;-1.698;2023-02-27T08:54:55;8.20;70.70
16863;DHT22;52193;48.216;-1.698;2023-02-27T08:57:22;8.20;70.60
16863;DHT22;52193;48.216;-1.698;2023-02-27T08:59:49;8.30;70.50
16863;DHT22;52193;48.216;-1.698;2023-02-27T09:02:16;8.30;69.90
16863;DHT22;52193;48.216;-1.698;2023-02-27T09:04:42;8.30;69.70
16863;DHT22;52193;48.216;-1.698;2023-02-27T09:07:11;8.40;69.30
16863;DHT22;52193;48.216;-1.698;2023-02-27T09:09:38;8.40;69.00
16863;DHT22;52193;48.216;-1.698;2023-02-27T09:12:05;8.50;69.20
16863;DHT22;52193;48.216;-1.698;2023-02-27T09:14:32;8.50;69.10
16863;DHT22;52193;48.216;-1.698;2023-02-27T09:16:59;8.50;69.50
16863;DHT22;52193;48.216;-1.698;2023-02-27T09:19:26;8.60;68.60
16863;DHT22;52193;48.216;-1.698;2023-02-27T09:21:53;8.60;68.60
16863;DHT22;52193;48.216;-1.698;2023-02-27T09:24:22;8.60;68.50
16863;DHT22;52193;48.216;-1.698;2023-02-27T09:26:49;8.60;68.80
16863;DHT22;52193;48.216;-1.698;2023-02-27T09:29:17;8.60;68.70
16863;DHT22;52193;48.216;-1.698;2023-02-27T09:31:44;8.70;68.70
16863;DHT22;52193;48.216;-1.698;2023-02-27T09:34:11;8.70;68.40
16863;DHT22;52193;48.216;-1.698;2023-02-27T09:36:38;8.80;68.40
16863;DHT22;52193;48.216;-1.698;2023-02-27T09:39:05;8.80;68.10
16863;DHT22;52193;48.216;-1.698;2023-02-27T09:41:51;8.90;68.40
16863;DHT22;52193;48.216;-1.698;2023-02-27T09:44:30;8.90;68.30
16863;DHT22;52193;48.216;-1.698;2023-02-27T09:46:58;9.00;68.50
16863;DHT22;52193;48.216;-1.698;2023-02-27T09:49:29;9.00;68.30
16863;DHT22;52193;48.216;-1.698;2023-02-27T09:51:57;9.00;67.90
16863;DHT22;52193;48.216;-1.698;2023-02-27T09:54:30;9.10;67.70
16863;DHT22;52193;48.216;-1.698;2023-02-27T09:57:01;9.10;67.70
16863;DHT22;52193;48.216;-1.698;2023-02-27T09:59:34;9.20;66.70
16863;DHT22;52193;48.216;-1.698;2023-02-27T10:02:11;9.20;66.70
16863;DHT22;52193;48.216;-1.698;2023-02-27T10:04:46;9.30;66.30
16863;DHT22;52193;48.216;-1.698;2023-02-27T10:07:21;9.30;66.00
16863;DHT22;52193;48.216;-1.698;2023-02-27T10:09:59;9.40;65.40
16863;DHT22;52193;48.216;-1.698;2023-02-27T10:12:57;9.40;65.70
16863;DHT22;52193;48.216;-1.698;2023-02-27T10:15:27;9.50;65.60
16863;DHT22;52193;48.216;-1.698;2023-02-27T10:17:59;9.50;65.50
16863;DHT22;52193;48.216;-1.698;2023-02-27T10:20:29;9.60;65.00
16863;DHT22;52193;48.216;-1.698;2023-02-27T10:22:59;9.70;64.50
16863;DHT22;52193;48.216;-1.698;2023-02-27T10:25:28;9.70;64.30
16863;DHT22;52193;48.216;-1.698;2023-02-27T10:28:01;9.80;63.50
16863;DHT22;52193;48.216;-1.698;2023-02-27T10:30:34;9.80;63.40
16863;DHT22;52193;48.216;-1.698;2023-02-27T10:33:07;9.90;63.10
16863;DHT22;52193;48.216;-1.698;2023-02-27T10:35:36;9.90;63.30
16863;DHT22;52193;48.216;-1.698;2023-02-27T10:38:07;10.00;62.60
16863;DHT22;52193;48.216;-1.698;2023-02-27T10:40:39;10.10;62.60
16863;DHT22;52193;48.216;-1.698;2023-02-27T10:43:09;10.10;61.90
16863;DHT22;52193;48.216;-1.698;2023-02-27T10:45:38;10.10;62.20
16863;DHT22;52193;48.216;-1.698;2023-02-27T10:48:07;10.20;62.40
16863;DHT22;52193;48.216;-1.698;2023-02-27T10:50:37;10.20;61.90
16863;DHT22;52193;48.216;-1.698;2023-02-27T10:53:17;10.30;61.20
16863;DHT22;52193;48.216;-1.698;2023-02-27T10:55:47;10.30;61.40
16863;DHT22;52193;48.216;-1.698;2023-02-27T10:58:24;10.40;61.40
16863;DHT22;52193;48.216;-1.698;2023-02-27T11:00:54;10.50;60.90
16863;DHT22;52193;48.216;-1.698;2023-02-27T11:03:24;10.50;60.80
16863;DHT22;52193;48.216;-1.698;2023-02-27T11:05:55;10.60;60.30
16863;DHT22;52193;48.216;-1.698;2023-02-27T11:08:24;10.70;60.50
16863;DHT22;52193;48.216;-1.698;2023-02-27T11:10:54;10.80;61.30
16863;DHT22;52193;48.216;-1.698;2023-02-27T11:13:24;10.90;61.10
16863;DHT22;52193;48.216;-1.698;2023-02-27T11:16:11;10.90;60.30
16863;DHT22;52193;48.216;-1.698;2023-02-27T11:18:39;11.00;59.80
16863;DHT22;52193;48.216;-1.698;2023-02-27T11:21:16;11.00;59.90
16863;DHT22;52193;48.216;-1.698;2023-02-27T11:23:53;11.00;60.10
16863;DHT22;52193;48.216;-1.698;2023-02-27T11:26:25;11.10;60.50
16863;DHT22;52193;48.216;-1.698;2023-02-27T11:29:11;11.10;59.90
16863;DHT22;52193;48.216;-1.698;2023-02-27T11:31:44;11.20;60.00
16863;DHT22;52193;48.216;-1.698;2023-02-27T11:34:18;11.30;60.50
16863;DHT22;52193;48.216;-1.698;2023-02-27T11:36:48;11.40;60.60
16863;DHT22;52193;48.216;-1.698;2023-02-27T11:39:25;11.60;60.50
16863;DHT22;52193;48.216;-1.698;2023-02-27T11:41:53;11.70;59.40
16863;DHT22;52193;48.216;-1.698;2023-02-27T11:44:25;11.70;59.90
16863;DHT22;52193;48.216;-1.698;2023-02-27T11:47:07;11.80;60.10
16863;DHT22;52193;48.216;-1.698;2023-02-27T11:49:41;11.90;60.10
16863;DHT22;52193;48.216;-1.698;2023-02-27T11:52:11;11.90;60.00
16863;DHT22;52193;48.216;-1.698;2023-02-27T11:54:42;11.90;59.50
16863;DHT22;52193;48.216;-1.698;2023-02-27T11:57:19;12.00;59.90
16863;DHT22;52193;48.216;-1.698;2023-02-27T11:59:51;12.10;59.90
16863;DHT22;52193;48.216;-1.698;2023-02-27T12:02:27;12.20;59.50
16863;DHT22;52193;48.216;-1.698;2023-02-27T12:04:58;12.30;59.50
16863;DHT22;52193;48.216;-1.698;2023-02-27T12:07:33;12.40;59.40
16863;DHT22;52193;48.216;-1.698;2023-02-27T12:10:09;12.50;59.50
16863;DHT22;52193;48.216;-1.698;2023-02-27T12:12:42;12.60;59.40
16863;DHT22;52193;48.216;-1.698;2023-02-27T12:15:21;12.80;59.40
16863;DHT22;52193;48.216;-1.698;2023-02-27T12:17:54;12.90;59.10
16863;DHT22;52193;48.216;-1.698;2023-02-27T12:20:32;13.00;59.00
16863;DHT22;52193;48.216;-1.698;2023-02-27T12:23:02;13.00;59.00
16863;DHT22;52193;48.216;-1.698;2023-02-27T12:25:39;13.10;59.00
16863;DHT22;52193;48.216;-1.698;2023-02-27T12:28:16;13.10;59.00
16863;DHT22;52193;48.216;-1.698;2023-02-27T12:30:50;13.20;58.90
16863;DHT22;52193;48.216;-1.698;2023-02-27T12:33:26;13.20;58.90
16863;DHT22;52193;48.216;-1.698;2023-02-27T12:36:00;13.20;58.90
16863;DHT22;52193;48.216;-1.698;2023-02-27T12:38:28;13.30;58.80
16863;DHT22;52193;48.216;-1.698;2023-02-27T12:41:04;13.30;58.80
16863;DHT22;52193;48.216;-1.698;2023-02-27T12:43:40;13.40;58.70
16863;DHT22;52193;48.216;-1.698;2023-02-27T12:46:24;13.50;58.80
16863;DHT22;52193;48.216;-1.698;2023-02-27T12:49:13;13.50;58.80
16863;DHT22;52193;48.216;-1.698;2023-02-27T12:51:47;13.50;58.70
16863;DHT22;52193;48.216;-1.698;2023-02-27T12:54:29;13.60;59.00
16863;DHT22;52193;48.216;-1.698;2023-02-27T13:00:05;13.80;59.00
16863;DHT22;52193;48.216;-1.698;2023-02-27T13:02:47;13.90;58.90
16863;DHT22;52193;48.216;-1.698;2023-02-27T13:05:30;14.00;58.80
16863;DHT22;52193;48.216;-1.698;2023-02-27T13:08:05;14.00;58.50
16863;DHT22;52193;48.216;-1.698;2023-02-27T13:10:38;14.00;58.40
16863;DHT22;52193;48.216;-1.698;2023-02-27T13:13:15;14.10;58.40
16863;DHT22;52193;48.216;-1.698;2023-02-27T13:15:49;14.20;58.60
16863;DHT22;52193;48.216;-1.698;2023-02-27T13:18:30;14.30;58.40
16863;DHT22;52193;48.216;-1.698;2023-02-27T13:21:06;14.30;58.10
16863;DHT22;52193;48.216;-1.698;2023-02-27T13:23:42;14.40;57.80
16863;DHT22;52193;48.216;-1.698;2023-02-27T13:26:17;14.50;57.60
16863;DHT22;52193;48.216;-1.698;2023-02-27T13:28:46;14.70;57.50
16863;DHT22;52193;48.216;-1.698;2023-02-27T13:31:19;14.90;57.50
16863;DHT22;52193;48.216;-1.698;2023-02-27T13:33:54;15.00;57.20
16863;DHT22;52193;48.216;-1.698;2023-02-27T13:36:29;15.10;56.80
16863;DHT22;52193;48.216;-1.698;2023-02-27T13:38:57;15.30;56.60
16863;DHT22;52193;48.216;-1.698;2023-02-27T13:41:35;15.40;56.40
16863;DHT22;52193;48.216;-1.698;2023-02-27T13:47:38;15.80;55.90
16863;DHT22;52193;48.216;-1.698;2023-02-27T13:53:16;16.30;55.70
16863;DHT22;52193;48.216;-1.698;2023-02-27T13:55:44;16.70;55.20
16863;DHT22;52193;48.216;-1.698;2023-02-27T13:58:16;17.00;54.60
16863;DHT22;52193;48.216;-1.698;2023-02-27T14:00:57;17.20;54.20
16863;DHT22;52193;48.216;-1.698;2023-02-27T14:03:26;17.50;54.00
16863;DHT22;52193;48.216;-1.698;2023-02-27T14:05:58;17.90;54.00
16863;DHT22;52193;48.216;-1.698;2023-02-27T14:08:29;18.30;53.80
16863;DHT22;52193;48.216;-1.698;2023-02-27T14:11:08;18.70;53.30
16863;DHT22;52193;48.216;-1.698;2023-02-27T14:13:56;19.40;52.60
16863;DHT22;52193;48.216;-1.698;2023-02-27T14:16:57;20.30;51.40
16863;DHT22;52193;48.216;-1.698;2023-02-27T14:19:49;21.40;50.50
16863;DHT22;52193;48.216;-1.698;2023-02-27T14:22:36;22.40;49.20
16863;DHT22;52193;48.216;-1.698;2023-02-27T14:25:23;23.60;48.40
16863;DHT22;52193;48.216;-1.698;2023-02-27T14:27:54;24.40;47.90
16863;DHT22;52193;48.216;-1.698;2023-02-27T14:30:37;25.40;47.70
16863;DHT22;52193;48.216;-1.698;2023-02-27T14:33:21;26.10;46.80
16863;DHT22;52193;48.216;-1.698;2023-02-27T14:35:55;27.00;46.20
16863;DHT22;52193;48.216;-1.698;2023-02-27T14:38:25;27.90;45.60
16863;DHT22;52193;48.216;-1.698;2023-02-27T14:41:21;28.40;45.00
16863;DHT22;52193;48.216;-1.698;2023-02-27T14:43:54;29.20;44.60
16863;DHT22;52193;48.216;-1.698;2023-02-27T14:46:24;29.80;44.50
16863;DHT22;52193;48.216;-1.698;2023-02-27T14:48:54;30.40;44.30
16863;DHT22;52193;48.216;-1.698;2023-02-27T14:51:22;31.00;43.90
16863;DHT22;52193;48.216;-1.698;2023-02-27T14:54:00;31.70;43.50
16863;DHT22;52193;48.216;-1.698;2023-02-27T14:56:29;32.20;42.20
16863;DHT22;52193;48.216;-1.698;2023-02-27T14:58:56;32.90;42.00
16863;DHT22;52193;48.216;-1.698;2023-02-27T15:01:25;33.80;41.40
16863;DHT22;52193;48.216;-1.698;2023-02-27T15:03:55;34.50;40.60
16863;DHT22;52193;48.216;-1.698;2023-02-27T15:06:28;35.10;40.10
16863;DHT22;52193;48.216;-1.698;2023-02-27T15:08:59;35.70;40.00
16863;DHT22;52193;48.216;-1.698;2023-02-27T15:11:26;36.10;40.00
16863;DHT22;52193;48.216;-1.698;2023-02-27T15:13:57;36.50;39.80
16863;DHT22;52193;48.216;-1.698;2023-02-27T15:16:36;37.00;39.20
16863;DHT22;52193;48.216;-1.698;2023-02-27T15:19:15;37.30;38.60
16863;DHT22;52193;48.216;-1.698;2023-02-27T15:21:45;37.80;38.40
16863;DHT22;52193;48.216;-1.698;2023-02-27T15:24:22;38.10;38.50
16863;DHT22;52193;48.216;-1.698;2023-02-27T15:26:52;38.20;38.00
16863;DHT22;52193;48.216;-1.698;2023-02-27T15:29:23;38.60;38.20
16863;DHT22;52193;48.216;-1.698;2023-02-27T15:31:51;38.60;37.80
16863;DHT22;52193;48.216;-1.698;2023-02-27T15:34:18;38.60;37.50
16863;DHT22;52193;48.216;-1.698;2023-02-27T15:36:49;38.60;37.30
16863;DHT22;52193;48.216;-1.698;2023-02-27T15:39:19;38.80;37.10
16863;DHT22;52193;48.216;-1.698;2023-02-27T15:41:47;38.40;36.80
16863;DHT22;52193;48.216;-1.698;2023-02-27T15:44:16;38.30;36.50
16863;DHT22;52193;48.216;-1.698;2023-02-27T15:46:45;38.10;36.50
16863;DHT22;52193;48.216;-1.698;2023-02-27T15:49:15;37.90;36.20
16863;DHT22;52193;48.216;-1.698;2023-02-27T15:51:46;37.60;36.20
16863;DHT22;52193;48.216;-1.698;2023-02-27T15:54:14;37.50;36.40
16863;DHT22;52193;48.216;-1.698;2023-02-27T15:56:41;36.90;35.90
16863;DHT22;52193;48.216;-1.698;2023-02-27T15:59:14;36.50;36.00
16863;DHT22;52193;48.216;-1.698;2023-02-27T16:01:44;36.30;36.30
16863;DHT22;52193;48.216;-1.698;2023-02-27T16:04:18;36.00;36.10
16863;DHT22;52193;48.216;-1.698;2023-02-27T16:06:50;35.70;36.20
16863;DHT22;52193;48.216;-1.698;2023-02-27T16:09:24;35.40;36.20
16863;DHT22;52193;48.216;-1.698;2023-02-27T16:12:19;35.20;36.20
16863;DHT22;52193;48.216;-1.698;2023-02-27T16:14:48;34.90;36.00